Time;durP1;ratioP1;P1;durP2;ratioP2;P2;SDS_P1;SDS_P2;PMS_P1;PMS_P2;Temp;Humidity;BMP_temperature;BMP_pressure;BME280_temperature;BME280_humidity;BME280_pressure;Samples;Min_cycle;Max_cycle;Signal;HPM_P1;HPM_P2
2022/08/31 00:06:25;0.00;0.00;0.62;0.00;0.00;0.62;1.50;1.00;;;25.70;28.40;;;;;;2242408;62;20358;-64
2022/08/31 00:09:10;0.00;0.00;0.62;0.00;0.00;0.62;2.37;1.00;;;25.60;28.40;;;;;;2242183;62;20370;-64
2022/08/31 00:11:55;0.00;0.00;0.62;0.00;0.00;0.62;1.40;0.80;;;25.60;28.40;;;;;;2242103;62;20414;-64
2022/08/31 00:14:40;0.00;0.00;0.62;0.00;0.00;0.62;1.83;0.93;;;25.60;28.40;;;;;;2241896;62;20393;-64
2022/08/31 00:17:25;0.00;0.00;0.62;0.00;0.00;0.62;1.60;0.90;;;25.60;28.40;;;;;;2241702;62;20367;-64
2022/08/31 00:20:12;0.00;0.00;0.62;0.00;0.00;0.62;2.87;1.20;;;25.50;28.40;;;;;;2242392;62;20479;-65
2022/08/31 00:22:58;0.00;0.00;0.62;0.00;0.00;0.62;2.33;1.30;;;25.50;28.40;;;;;;2241717;61;20365;-65
2022/08/31 00:25:46;0.00;0.00;0.62;0.00;0.00;0.62;1.40;0.90;;;25.50;28.40;;;;;;2242101;62;20436;-62
2022/08/31 00:28:31;0.00;0.00;0.62;0.00;0.00;0.62;1.70;0.90;;;25.50;28.40;;;;;;2242361;62;20653;-61
2022/08/31 00:31:16;0.00;0.00;0.62;0.00;0.00;0.62;1.93;1.13;;;25.50;28.40;;;;;;2244091;61;20419;-64
2022/08/31 00:34:01;0.00;0.00;0.62;0.00;0.00;0.62;1.60;0.90;;;25.50;28.90;;;;;;2244794;61;20388;-64
2022/08/31 00:36:46;0.00;0.00;0.62;0.00;0.00;0.62;1.70;1.13;;;25.40;28.40;;;;;;2245977;61;20741;-65
2022/08/31 00:39:32;0.00;0.00;0.62;0.00;0.00;0.62;2.00;1.10;;;25.50;28.40;;;;;;2245916;61;20398;-64
2022/08/31 00:42:17;0.00;0.00;0.62;0.00;0.00;0.62;1.73;1.10;;;25.40;28.30;;;;;;2246350;61;20478;-64
2022/08/31 00:45:03;0.00;0.00;0.62;0.00;0.00;0.62;1.60;1.00;;;25.40;28.30;;;;;;2237923;62;20416;-66
2022/08/31 00:47:49;0.00;0.00;0.62;0.00;0.00;0.62;1.90;0.90;;;25.40;28.40;;;;;;2237666;62;20371;-63
2022/08/31 00:50:34;0.00;0.00;0.62;0.00;0.00;0.62;1.40;0.90;;;25.40;28.40;;;;;;2238510;62;20395;-64
2022/08/31 00:53:19;0.00;0.00;0.62;0.00;0.00;0.62;1.40;0.90;;;25.30;28.30;;;;;;2237829;62;20587;-65
2022/08/31 00:56:07;0.00;0.00;0.62;0.00;0.00;0.62;1.70;0.90;;;25.30;28.40;;;;;;2237863;62;20352;-66
2022/08/31 00:58:53;0.00;0.00;0.62;0.00;0.00;0.62;2.50;1.10;;;25.30;28.40;;;;;;2238230;62;20371;-63
2022/08/31 01:01:38;0.00;0.00;0.62;0.00;0.00;0.62;1.60;0.90;;;25.20;28.40;;;;;;2238147;62;20693;-63
2022/08/31 01:04:23;0.00;0.00;0.62;0.00;0.00;0.62;1.40;0.90;;;25.20;28.40;;;;;;2241768;62;20401;-65
2022/08/31 01:07:08;0.00;0.00;0.62;0.00;0.00;0.62;1.60;1.00;;;25.20;28.40;;;;;;2242060;62;20386;-66
2022/08/31 01:09:55;0.00;0.00;0.62;0.00;0.00;0.62;2.00;0.90;;;25.20;28.50;;;;;;2242027;62;20403;-63
2022/08/31 01:12:44;0.00;0.00;0.62;0.00;0.00;0.62;1.80;1.10;;;25.10;28.70;;;;;;2242152;61;20615;-64
2022/08/31 01:15:30;0.00;0.00;0.62;0.00;0.00;0.62;3.60;0.93;;;25.10;28.40;;;;;;2241546;62;20621;-63
2022/08/31 01:18:16;0.00;0.00;0.62;0.00;0.00;0.62;1.60;0.87;;;25.10;28.50;;;;;;2241909;62;20436;-67
2022/08/31 01:21:13;0.00;0.00;0.62;0.00;0.00;0.62;2.00;1.13;;;25.10;28.50;;;;;;2241824;62;20546;-65
2022/08/31 01:24:02;0.00;0.00;0.62;0.00;0.00;0.62;1.60;1.00;;;25.10;28.50;;;;;;2241407;61;20611;-66
2022/08/31 01:26:48;0.00;0.00;0.62;0.00;0.00;0.62;2.37;0.90;;;25.10;28.50;;;;;;2244615;61;20370;-64
2022/08/31 01:29:33;0.00;0.00;0.62;0.00;0.00;0.62;1.93;0.90;;;25.10;28.50;;;;;;2241627;62;20406;-63
2022/08/31 01:32:18;0.00;0.00;0.62;0.00;0.00;0.62;2.60;0.90;;;25.10;28.60;;;;;;2241797;61;20454;-66
2022/08/31 01:35:06;0.00;0.00;0.62;0.00;0.00;0.62;1.60;1.00;;;25.00;28.50;;;;;;2244469;61;20636;-66
2022/08/31 01:37:52;0.00;0.00;0.62;0.00;0.00;0.62;2.00;1.00;;;25.00;28.60;;;;;;2243965;61;20471;-66
2022/08/31 01:40:50;0.00;0.00;0.62;0.00;0.00;0.62;1.70;1.13;;;25.00;28.60;;;;;;2241977;62;20362;-66
2022/08/31 01:43:35;0.00;0.00;0.62;0.00;0.00;0.62;1.60;0.90;;;25.00;28.60;;;;;;2239492;61;20403;-67
2022/08/31 01:46:20;0.00;0.00;0.62;0.00;0.00;0.62;1.40;0.70;;;25.00;28.60;;;;;;2240016;62;20383;-64
2022/08/31 01:49:05;0.00;0.00;0.62;0.00;0.00;0.62;1.40;0.80;;;24.90;28.60;;;;;;2238239;62;20423;-66
2022/08/31 01:51:52;0.00;0.00;0.62;0.00;0.00;0.62;1.50;0.90;;;24.90;28.60;;;;;;2237659;62;20730;-66
2022/08/31 01:54:37;0.00;0.00;0.62;0.00;0.00;0.62;1.70;1.03;;;24.90;28.60;;;;;;2237785;62;20399;-65
2022/08/31 01:57:24;0.00;0.00;0.62;0.00;0.00;0.62;1.77;1.07;;;24.90;28.70;;;;;;2240536;62;20396;-66
2022/08/31 02:00:44;0.00;0.00;0.62;0.00;0.00;0.62;1.70;0.90;;;24.90;28.70;;;;;;2238307;62;20418;-65
2022/08/31 02:03:29;0.00;0.00;0.62;0.00;0.00;0.62;2.20;1.20;;;24.90;28.70;;;;;;2244504;61;20436;-67
2022/08/31 02:06:15;0.00;0.00;0.62;0.00;0.00;0.62;1.43;0.80;;;24.90;28.70;;;;;;2245443;61;20421;-66
2022/08/31 02:09:02;0.00;0.00;0.62;0.00;0.00;0.62;1.80;1.07;;;24.90;28.80;;;;;;2245242;61;20362;-64
2022/08/31 02:11:47;0.00;0.00;0.62;0.00;0.00;0.62;1.53;0.90;;;24.80;28.70;;;;;;2245600;61;20765;-66
2022/08/31 02:14:33;0.00;0.00;0.62;0.00;0.00;0.62;1.70;1.10;;;24.80;28.80;;;;;;2237982;62;20427;-65
2022/08/31 02:17:17;0.00;0.00;0.62;0.00;0.00;0.62;2.10;1.20;;;24.80;28.80;;;;;;2237189;62;20376;-65
2022/08/31 02:20:05;0.00;0.00;0.62;0.00;0.00;0.62;1.73;1.00;;;24.80;28.80;;;;;;2240019;62;20727;-65
2022/08/31 02:22:52;0.00;0.00;0.62;0.00;0.00;0.62;2.00;1.10;;;24.80;28.80;;;;;;2238673;61;20595;-65
2022/08/31 02:25:36;0.00;0.00;0.62;0.00;0.00;0.62;1.97;0.97;;;24.80;28.80;;;;;;2244194;61;20346;-63
2022/08/31 02:28:22;0.00;0.00;0.62;0.00;0.00;0.62;1.40;0.80;;;24.70;28.80;;;;;;2243936;61;20598;-64
2022/08/31 02:31:10;0.00;0.00;0.62;0.00;0.00;0.62;1.80;1.10;;;24.80;28.90;;;;;;2243962;61;20435;-66
2022/08/31 02:34:03;0.00;0.00;0.62;0.00;0.00;0.62;1.77;1.00;;;24.70;28.90;;;;;;2242205;61;20437;-63
2022/08/31 02:36:48;0.00;0.00;0.62;0.00;0.00;0.62;1.67;0.93;;;24.70;28.90;;;;;;2243805;61;20443;-64
2022/08/31 02:39:33;0.00;0.00;0.62;0.00;0.00;0.62;1.60;1.10;;;24.70;28.90;;;;;;2243881;61;20402;-65
2022/08/31 02:42:18;0.00;0.00;0.62;0.00;0.00;0.62;2.37;0.90;;;24.70;28.90;;;;;;2243770;61;20354;-64
2022/08/31 02:45:04;0.00;0.00;0.62;0.00;0.00;0.62;1.50;0.90;;;24.70;28.90;;;;;;2244007;61;20390;-62
2022/08/31 02:47:50;0.00;0.00;0.62;0.00;0.00;0.62;1.70;1.10;;;24.60;28.90;;;;;;2244287;61;20351;-65
2022/08/31 02:50:51;0.00;0.00;0.62;0.00;0.00;0.62;1.97;1.17;;;24.60;28.90;;;;;;2243876;61;20435;-64
2022/08/31 02:53:37;0.00;0.00;0.62;0.00;0.00;0.62;1.77;1.07;;;24.60;28.90;;;;;;2241471;61;20398;-64
2022/08/31 02:56:22;0.00;0.00;0.62;0.00;0.00;0.62;1.73;1.00;;;24.60;28.90;;;;;;2244271;61;20430;-66
2022/08/31 02:59:08;0.00;0.00;0.62;0.00;0.00;0.62;1.80;0.93;;;24.60;28.90;;;;;;2241435;62;20350;-63
2022/08/31 03:01:52;0.00;0.00;0.62;0.00;0.00;0.62;1.50;0.87;;;24.50;28.90;;;;;;2241562;62;20739;-65
2022/08/31 03:04:39;0.00;0.00;0.62;0.00;0.00;0.62;1.50;0.90;;;24.60;29.00;;;;;;2241267;62;20438;-65
2022/08/31 03:07:24;0.00;0.00;0.62;0.00;0.00;0.62;1.40;0.80;;;24.50;28.90;;;;;;2241593;62;20442;-65
2022/08/31 03:10:12;0.00;0.00;0.62;0.00;0.00;0.62;1.90;1.00;;;24.60;29.00;;;;;;2241961;62;20427;-63
2022/08/31 03:12:57;0.00;0.00;0.62;0.00;0.00;0.62;1.60;0.87;;;24.50;29.00;;;;;;2241636;62;20374;-65
2022/08/31 03:15:43;0.00;0.00;0.62;0.00;0.00;0.62;1.50;0.80;;;24.50;29.00;;;;;;2243766;61;20742;-63
2022/08/31 03:18:28;0.00;0.00;0.62;0.00;0.00;0.62;1.50;0.90;;;24.50;29.00;;;;;;2244379;61;20723;-65
2022/08/31 03:21:16;0.00;0.00;0.62;0.00;0.00;0.62;1.37;0.80;;;24.50;29.00;;;;;;2243591;61;20407;-65
2022/08/31 03:24:01;0.00;0.00;0.62;0.00;0.00;0.62;1.43;0.90;;;24.50;29.00;;;;;;2242790;61;20449;-65
2022/08/31 03:26:46;0.00;0.00;0.62;0.00;0.00;0.62;1.77;1.00;;;24.50;29.00;;;;;;2244016;61;20734;-63
2022/08/31 03:29:32;0.00;0.00;0.62;0.00;0.00;0.62;1.70;1.10;;;24.40;29.00;;;;;;2243768;61;20366;-65
2022/08/31 03:32:35;0.00;0.00;0.62;0.00;0.00;0.62;1.67;1.00;;;24.40;29.00;;;;;;2243586;61;20386;-66
2022/08/31 03:35:21;0.00;0.00;0.62;0.00;0.00;0.62;1.70;1.00;;;24.40;29.00;;;;;;2237297;62;20387;-66
2022/08/31 03:38:09;0.00;0.00;0.62;0.00;0.00;0.62;1.93;0.90;;;24.40;29.00;;;;;;2239990;61;20644;-67
2022/08/31 03:40:54;0.00;0.00;0.62;0.00;0.00;0.62;1.80;1.10;;;24.40;29.10;;;;;;2240917;62;20751;-64
2022/08/31 03:43:38;0.00;0.00;0.62;0.00;0.00;0.62;2.10;1.30;;;24.40;29.10;;;;;;2240074;62;20780;-65
2022/08/31 03:46:23;0.00;0.00;0.62;0.00;0.00;0.62;1.60;0.97;;;24.40;29.10;;;;;;2238231;62;20840;-67
2022/08/31 03:49:11;0.00;0.00;0.62;0.00;0.00;0.62;1.60;1.03;;;24.30;29.10;;;;;;2237894;62;20668;-65
2022/08/31 03:52:02;0.00;0.00;0.62;0.00;0.00;0.62;1.60;0.90;;;24.30;29.10;;;;;;2240167;62;20395;-65
2022/08/31 03:54:51;0.00;0.00;0.62;0.00;0.00;0.62;1.70;1.10;;;24.30;29.20;;;;;;2257438;61;20430;-64
2022/08/31 03:57:37;0.00;0.00;0.62;0.00;0.00;0.62;1.60;0.90;;;24.30;29.20;;;;;;2237871;62;20371;-64
2022/08/31 04:00:23;0.00;0.00;0.62;0.00;0.00;0.62;2.30;1.10;;;24.30;29.20;;;;;;2240609;62;20367;-64
2022/08/31 04:03:13;0.00;0.00;0.62;0.00;0.00;0.62;1.40;0.90;;;24.30;29.20;;;;;;2240711;61;20583;-65
2022/08/31 04:06:17;0.00;0.00;0.62;0.00;0.00;0.62;1.70;1.10;;;24.30;29.30;;;;;;2238222;62;20364;-64
2022/08/31 04:09:20;0.00;0.00;0.62;0.00;0.00;0.62;2.30;0.90;;;24.20;29.20;;;;;;2238640;62;20366;-64
2022/08/31 04:12:35;0.00;0.00;0.62;0.00;0.00;0.62;1.70;0.80;;;24.20;29.20;;;;;;2238081;61;20396;-65
2022/08/31 04:15:28;0.00;0.00;0.62;0.00;0.00;0.62;2.00;1.30;;;24.20;29.80;;;;;;2244429;61;20851;-64
2022/08/31 04:18:45;0.00;0.00;0.62;0.00;0.00;0.62;1.90;1.00;;;24.20;29.30;;;;;;2242032;62;20357;-66
2022/08/31 04:21:30;0.00;0.00;0.62;0.00;0.00;0.62;2.00;1.00;;;24.20;29.40;;;;;;2244322;61;20406;-67
2022/08/31 04:24:15;0.00;0.00;0.62;0.00;0.00;0.62;2.20;0.90;;;24.20;29.40;;;;;;2242424;62;20777;-66
2022/08/31 04:27:01;0.00;0.00;0.62;0.00;0.00;0.62;1.40;0.90;;;24.10;29.40;;;;;;2244192;61;20666;-67
2022/08/31 04:29:47;0.00;0.00;0.62;0.00;0.00;0.62;2.20;1.20;;;24.10;29.50;;;;;;2244385;61;20362;-67
2022/08/31 04:32:32;0.00;0.00;0.62;0.00;0.00;0.62;1.60;0.90;;;24.10;29.50;;;;;;2244647;61;20401;-64
2022/08/31 04:35:17;0.00;0.00;0.62;0.00;0.00;0.62;1.60;0.90;;;24.10;29.50;;;;;;2244159;61;20433;-64
2022/08/31 04:38:02;0.00;0.00;0.62;0.00;0.00;0.62;2.13;1.10;;;24.10;29.50;;;;;;2242041;62;20564;-66
2022/08/31 04:40:48;0.00;0.00;0.62;0.00;0.00;0.62;1.77;1.10;;;24.10;29.50;;;;;;2244472;61;20379;-66
2022/08/31 04:43:33;0.00;0.00;0.62;0.00;0.00;0.62;1.60;1.00;;;24.10;29.50;;;;;;2244231;61;20398;-64
2022/08/31 04:46:20;0.00;0.00;0.62;0.00;0.00;0.62;1.40;0.87;;;24.10;29.50;;;;;;2244723;61;20401;-65
2022/08/31 04:49:08;0.00;0.00;0.62;0.00;0.00;0.62;1.50;0.93;;;24.10;29.50;;;;;;2244274;61;20385;-66
2022/08/31 04:51:53;0.00;0.00;0.62;0.00;0.00;0.62;2.63;1.00;;;24.10;29.50;;;;;;2241504;61;20386;-67
2022/08/31 04:54:38;0.00;0.00;0.62;0.00;0.00;0.62;1.93;1.20;;;24.10;29.50;;;;;;2241802;62;20418;-64
2022/08/31 04:57:23;0.00;0.00;0.62;0.00;0.00;0.62;1.43;0.77;;;24.10;29.50;;;;;;2241776;62;20357;-65
2022/08/31 05:00:10;0.00;0.00;0.62;0.00;0.00;0.62;1.70;1.00;;;24.10;29.50;;;;;;2241987;62;20450;-66
2022/08/31 05:03:22;0.00;0.00;0.62;0.00;0.00;0.62;1.40;0.97;;;24.10;29.50;;;;;;2243588;61;20433;-65
2022/08/31 05:06:13;0.00;0.00;0.62;0.00;0.00;0.62;2.03;1.00;;;24.10;29.50;;;;;;2245182;61;20556;-66
2022/08/31 05:09:01;0.00;0.00;0.62;0.00;0.00;0.62;3.00;1.20;;;24.00;29.40;;;;;;2246203;61;20354;-65
2022/08/31 05:11:48;0.00;0.00;0.62;0.00;0.00;0.62;1.90;1.00;;;24.00;29.40;;;;;;2245204;61;20558;-64
2022/08/31 05:14:34;0.00;0.00;0.62;0.00;0.00;0.62;2.70;1.30;;;24.00;29.40;;;;;;2237708;62;20503;-65
2022/08/31 05:17:24;0.00;0.00;0.62;0.00;0.00;0.62;1.67;1.00;;;24.00;29.40;;;;;;2240476;62;20363;-64
2022/08/31 05:20:10;0.00;0.00;0.62;0.00;0.00;0.62;1.67;0.90;;;24.00;29.40;;;;;;2238001;62;20408;-63
2022/08/31 05:22:55;0.00;0.00;0.62;0.00;0.00;0.62;2.00;1.03;;;24.00;29.40;;;;;;2238805;61;20394;-64
2022/08/31 05:25:39;0.00;0.00;0.62;0.00;0.00;0.62;1.70;1.20;;;24.00;29.40;;;;;;2242002;62;20358;-66
2022/08/31 05:28:25;0.00;0.00;0.62;0.00;0.00;0.62;2.00;0.87;;;24.00;29.40;;;;;;2244014;61;20366;-63
2022/08/31 05:31:11;0.00;0.00;0.62;0.00;0.00;0.62;2.53;1.40;;;24.00;29.40;;;;;;2242036;62;20359;-62
2022/08/31 05:34:02;0.00;0.00;0.62;0.00;0.00;0.62;1.73;1.10;;;23.90;29.40;;;;;;2243844;61;20382;-65
2022/08/31 05:36:58;0.00;0.00;0.62;0.00;0.00;0.62;1.77;1.10;;;24.00;29.50;;;;;;2244042;61;20363;-64
2022/08/31 05:39:46;0.00;0.00;0.62;0.00;0.00;0.62;2.53;1.00;;;23.90;29.50;;;;;;2244311;61;20362;-61
2022/08/31 05:42:31;0.00;0.00;0.62;0.00;0.00;0.62;2.90;1.17;;;23.90;29.50;;;;;;2244085;61;20363;-64
2022/08/31 05:45:17;0.00;0.00;0.62;0.00;0.00;0.62;1.83;1.00;;;23.90;29.50;;;;;;2244112;61;20755;-63
2022/08/31 05:48:04;0.00;0.00;0.62;0.00;0.00;0.62;2.40;1.07;;;23.90;29.50;;;;;;2241513;62;20346;-64
2022/08/31 05:50:52;0.00;0.00;0.62;0.00;0.00;0.62;1.70;1.27;;;23.90;29.60;;;;;;2243955;61;20379;-63
2022/08/31 05:53:40;0.00;0.00;0.62;0.00;0.00;0.62;1.90;1.20;;;23.90;29.60;;;;;;2244227;61;20437;-67
2022/08/31 05:56:24;0.00;0.00;0.62;0.00;0.00;0.62;2.07;1.17;;;23.90;29.80;;;;;;2243701;61;20371;-66
2022/08/31 05:59:13;0.00;0.00;0.62;0.00;0.00;0.62;1.80;1.03;;;23.80;29.80;;;;;;2241339;61;20398;-63
2022/08/31 06:01:59;0.00;0.00;0.62;0.00;0.00;0.62;1.87;1.33;;;23.80;29.80;;;;;;2241358;62;20468;-63
2022/08/31 06:04:46;0.00;0.00;0.62;0.00;0.00;0.62;1.70;1.00;;;23.80;30.30;;;;;;2473430;53;20581;-64
2022/08/31 06:07:31;0.00;0.00;0.62;0.00;0.00;0.62;2.10;1.20;;;23.80;29.80;;;;;;2241393;62;20479;-65
2022/08/31 06:10:20;0.00;0.00;0.62;0.00;0.00;0.62;1.67;1.00;;;23.80;29.80;;;;;;2241339;62;20362;-65
2022/08/31 06:13:07;0.00;0.00;0.62;0.00;0.00;0.62;1.50;1.00;;;23.80;29.90;;;;;;2241428;61;20483;-67
2022/08/31 06:15:52;0.00;0.00;0.62;0.00;0.00;0.62;1.63;1.03;;;23.80;29.90;;;;;;2244331;61;20513;-66
2022/08/31 06:18:39;0.00;0.00;0.62;0.00;0.00;0.62;1.77;1.00;;;23.90;30.00;;;;;;2243845;61;20370;-66
2022/08/31 06:21:30;0.00;0.00;0.62;0.00;0.00;0.62;2.60;1.03;;;23.90;30.00;;;;;;2241045;62;20373;-64
2022/08/31 06:24:15;0.00;0.00;0.62;0.00;0.00;0.62;1.40;0.90;;;23.90;30.00;;;;;;2241733;62;20418;-66
2022/08/31 06:27:04;0.00;0.00;0.62;0.00;0.00;0.62;1.40;0.80;;;23.90;30.00;;;;;;2244013;61;20672;-65
2022/08/31 06:29:51;0.00;0.00;0.62;0.00;0.00;0.62;2.30;1.00;;;23.90;30.00;;;;;;2244436;61;20375;-65
2022/08/31 06:32:35;0.00;0.00;0.62;0.00;0.00;0.62;1.73;1.10;;;23.90;30.00;;;;;;2241563;61;20438;-66
2022/08/31 06:35:22;0.00;0.00;0.62;0.00;0.00;0.62;1.40;0.70;;;24.00;30.10;;;;;;2243781;61;20430;-65
2022/08/31 06:38:40;0.00;0.00;0.62;0.00;0.00;0.62;2.00;1.20;;;24.00;30.10;;;;;;2238796;61;20469;-63
2022/08/31 06:41:52;0.00;0.00;0.62;0.00;0.00;0.62;2.60;0.90;;;24.00;30.10;;;;;;2239792;61;20920;-66
2022/08/31 06:44:45;0.00;0.00;0.62;0.00;0.00;0.62;1.80;0.97;;;24.00;30.10;;;;;;2655377;46;20430;-65
2022/08/31 06:47:35;0.00;0.00;0.62;0.00;0.00;0.62;1.40;1.00;;;24.00;30.20;;;;;;2243902;61;20371;-64
2022/08/31 06:50:20;0.00;0.00;0.62;0.00;0.00;0.62;1.30;0.83;;;24.10;30.30;;;;;;2243750;61;20406;-65
2022/08/31 06:53:07;0.00;0.00;0.62;0.00;0.00;0.62;2.00;1.03;;;24.10;30.30;;;;;;2244052;61;20512;-65
2022/08/31 06:56:13;0.00;0.00;0.62;0.00;0.00;0.62;2.50;1.27;;;24.10;30.30;;;;;;2241449;62;20415;-67
2022/08/31 06:59:17;0.00;0.00;0.62;0.00;0.00;0.62;1.50;1.00;;;24.20;30.40;;;;;;2241730;62;20414;-67
2022/08/31 07:02:22;0.00;0.00;0.62;0.00;0.00;0.62;1.70;1.00;;;24.20;30.40;;;;;;2241333;61;20365;-67
2022/08/31 07:05:08;0.00;0.00;0.62;0.00;0.00;0.62;3.00;1.10;;;24.30;30.50;;;;;;2243873;61;20390;-65
2022/08/31 07:07:54;0.00;0.00;0.62;0.00;0.00;0.62;1.50;0.80;;;24.20;30.40;;;;;;2244365;61;20367;-68
2022/08/31 07:10:40;0.00;0.00;0.62;0.00;0.00;0.62;2.93;1.20;;;24.30;30.50;;;;;;2243586;61;20626;-65
2022/08/31 07:13:25;0.00;0.00;0.62;0.00;0.00;0.62;1.80;1.10;;;24.30;30.40;;;;;;2242959;61;20438;-66
2022/08/31 07:16:13;0.00;0.00;0.62;0.00;0.00;0.62;2.20;0.93;;;24.40;30.50;;;;;;2241547;62;20350;-65
2022/08/31 07:19:02;0.00;0.00;0.62;0.00;0.00;0.62;1.70;1.20;;;24.40;30.50;;;;;;2243960;61;20387;-62
2022/08/31 07:21:50;0.00;0.00;0.62;0.00;0.00;0.62;2.70;0.90;;;24.50;30.60;;;;;;2244202;61;20726;-62
2022/08/31 07:24:36;0.00;0.00;0.62;0.00;0.00;0.62;1.63;1.00;;;24.50;30.50;;;;;;2244101;61;20429;-62
2022/08/31 07:27:25;0.00;0.00;0.62;0.00;0.00;0.62;2.20;1.03;;;24.50;30.50;;;;;;2245040;61;20724;-63
2022/08/31 07:30:13;0.00;0.00;0.62;0.00;0.00;0.62;1.60;1.00;;;24.50;30.50;;;;;;2245399;61;20370;-61
2022/08/31 07:33:04;0.00;0.00;0.62;0.00;0.00;0.62;2.47;0.90;;;24.60;30.60;;;;;;2244756;61;20389;-62
2022/08/31 07:35:51;0.00;0.00;0.62;0.00;0.00;0.62;1.80;0.90;;;24.60;30.60;;;;;;2245153;61;20357;-62
2022/08/31 07:44:49;0.00;0.00;0.62;0.00;0.00;0.62;1.83;0.90;;;24.70;30.70;;;;;;2686361;46;20407;-62
2022/08/31 07:47:34;0.00;0.00;0.62;0.00;0.00;0.62;1.77;1.17;;;24.70;30.60;;;;;;2236967;62;20368;-61
2022/08/31 07:50:21;0.00;0.00;0.62;0.00;0.00;0.62;2.20;1.10;;;24.70;30.60;;;;;;2237156;62;20371;-61
2022/08/31 07:53:30;0.00;0.00;0.62;0.00;0.00;0.62;3.07;1.40;;;24.70;30.60;;;;;;2239327;61;20863;-62
2022/08/31 07:56:45;0.00;0.00;0.62;0.00;0.00;0.62;1.80;1.20;;;24.70;30.60;;;;;;2240977;62;20394;-63
2022/08/31 07:59:33;0.00;0.00;0.62;0.00;0.00;0.62;4.47;1.40;;;24.70;30.60;;;;;;2241397;62;20406;-64
2022/08/31 08:02:20;0.00;0.00;0.62;0.00;0.00;0.62;1.93;1.10;;;24.80;30.70;;;;;;2240719;61;20358;-61
2022/08/31 08:05:06;0.00;0.00;0.62;0.00;0.00;0.62;1.87;1.07;;;24.80;30.70;;;;;;2243663;61;20382;-62
2022/08/31 08:08:11;0.00;0.00;0.62;0.00;0.00;0.62;1.90;1.07;;;24.80;30.70;;;;;;2241344;62;20487;-64
2022/08/31 08:11:27;0.00;0.00;0.62;0.00;0.00;0.62;2.03;1.13;;;24.80;30.80;;;;;;2234867;62;20844;-69
2022/08/31 08:14:24;0.00;0.00;0.62;0.00;0.00;0.62;3.03;1.23;;;24.90;30.90;;;;;;2243908;61;20789;-66
2022/08/31 08:17:29;0.00;0.00;0.62;0.00;0.00;0.62;3.33;1.00;;;24.80;31.00;;;;;;2240373;61;20656;-68
2022/08/31 08:20:29;0.00;0.00;0.62;0.00;0.00;0.62;1.97;1.00;;;24.90;31.10;;;;;;2243655;61;20378;-66
2022/08/31 08:23:17;0.00;0.00;0.62;0.00;0.00;0.62;1.90;1.07;;;24.90;31.10;;;;;;2241199;61;20402;-66
2022/08/31 08:26:28;0.00;0.00;0.62;0.00;0.00;0.62;1.73;1.13;;;24.90;31.20;;;;;;2241856;62;20426;-65
2022/08/31 08:29:04;0.00;0.00;0.62;0.00;0.00;0.62;1.60;0.90;;;24.90;31.20;;;;;;2253450;57;20492;-65
2022/08/31 08:31:54;0.00;0.00;0.62;0.00;0.00;0.62;2.07;1.00;;;24.90;31.30;;;;;;2249031;61;20388;-66
2022/08/31 08:34:42;0.00;0.00;0.62;0.00;0.00;0.62;1.67;1.00;;;24.90;31.20;;;;;;2247968;61;20512;-62
2022/08/31 08:37:27;0.00;0.00;0.62;0.00;0.00;0.62;2.50;1.30;;;24.90;31.30;;;;;;2242760;61;20421;-61
2022/08/31 08:40:27;0.00;0.00;0.62;0.00;0.00;0.62;2.80;1.30;;;24.90;31.30;;;;;;2245573;61;20494;-61
2022/08/31 08:43:18;0.00;0.00;0.62;0.00;0.00;0.62;1.77;1.10;;;24.90;31.30;;;;;;2245147;61;20561;-62
2022/08/31 08:46:05;0.00;0.00;0.62;0.00;0.00;0.62;2.30;1.60;;;24.90;31.20;;;;;;2245322;61;20455;-61
2022/08/31 08:48:50;0.00;0.00;0.62;0.00;0.00;0.62;2.70;1.17;;;24.90;31.30;;;;;;2245829;61;20605;-61
2022/08/31 08:51:38;0.00;0.00;0.62;0.00;0.00;0.62;2.00;1.30;;;24.90;31.30;;;;;;2245671;61;20365;-61
2022/08/31 08:54:30;0.00;0.00;0.62;0.00;0.00;0.62;2.10;1.17;;;24.90;31.30;;;;;;2245170;61;20382;-62
2022/08/31 08:57:21;0.00;0.00;0.62;0.00;0.00;0.62;2.70;1.50;;;24.90;31.30;;;;;;2245206;61;20370;-61
2022/08/31 09:00:14;0.00;0.00;0.62;0.00;0.00;0.62;2.53;1.10;;;24.90;31.30;;;;;;2245504;61;20426;-56
2022/08/31 09:03:11;0.00;0.00;0.62;0.00;0.00;0.62;1.40;0.80;;;24.90;31.30;;;;;;2245458;61;20437;-62
2022/08/31 09:06:11;0.00;0.00;0.62;0.00;0.00;0.62;1.63;1.07;;;24.90;31.30;;;;;;2245434;61;20365;-62
2022/08/31 09:09:20;0.00;0.00;0.62;0.00;0.00;0.62;1.70;1.00;;;24.90;31.30;;;;;;2245243;61;20698;-60
2022/08/31 09:12:25;0.00;0.00;0.62;0.00;0.00;0.62;1.60;0.90;;;24.90;31.30;;;;;;2245210;61;20397;-61
2022/08/31 09:15:35;0.00;0.00;0.62;0.00;0.00;0.62;3.23;1.33;;;24.90;31.30;;;;;;2245423;61;20753;-60
2022/08/31 09:18:34;0.00;0.00;0.62;0.00;0.00;0.62;2.33;1.10;;;24.90;31.30;;;;;;2245713;61;20649;-60
2022/08/31 09:21:28;0.00;0.00;0.62;0.00;0.00;0.62;2.40;1.30;;;24.90;31.20;;;;;;2245861;61;20365;-61
2022/08/31 09:24:19;0.00;0.00;0.62;0.00;0.00;0.62;2.37;1.00;;;24.90;31.20;;;;;;2245245;61;20441;-62
2022/08/31 09:27:37;0.00;0.00;0.62;0.00;0.00;0.62;2.53;1.20;;;24.90;31.20;;;;;;2245176;61;20617;-59
2022/08/31 09:30:53;0.00;0.00;0.62;0.00;0.00;0.62;2.63;1.00;;;24.90;31.10;;;;;;2245851;61;20485;-61
2022/08/31 09:33:49;0.00;0.00;0.62;0.00;0.00;0.62;2.17;1.20;;;24.90;31.10;;;;;;2245369;61;20494;-61
2022/08/31 09:36:39;0.00;0.00;0.62;0.00;0.00;0.62;2.97;1.27;;;24.90;31.00;;;;;;2245703;61;20758;-59
2022/08/31 09:39:30;0.00;0.00;0.62;0.00;0.00;0.62;2.03;1.10;;;24.90;31.00;;;;;;2245325;61;20366;-60
2022/08/31 09:42:29;0.00;0.00;0.62;0.00;0.00;0.62;2.03;1.13;;;24.80;30.80;;;;;;2245725;61;20362;-61
2022/08/31 09:45:28;0.00;0.00;0.62;0.00;0.00;0.62;4.50;0.80;;;24.80;30.70;;;;;;2245444;61;20385;-60
2022/08/31 09:48:42;0.00;0.00;0.62;0.00;0.00;0.62;2.40;1.07;;;24.80;30.70;;;;;;2246067;61;20424;-61
2022/08/31 09:51:33;0.00;0.00;0.62;0.00;0.00;0.62;1.93;1.30;;;24.80;30.70;;;;;;2245748;61;20366;-60
2022/08/31 09:57:49;0.00;0.00;0.62;0.00;0.00;0.62;2.27;0.87;;;24.80;30.50;;;;;;2245643;61;20438;-61
2022/08/31 10:00:40;0.00;0.00;0.62;0.00;0.00;0.62;5.63;1.30;;;24.80;31.30;;;;;;2245318;61;20381;-60
2022/08/31 10:03:29;0.00;0.00;0.62;0.00;0.00;0.62;2.50;1.10;;;24.80;30.40;;;;;;2245522;61;20430;-60
2022/08/31 10:06:45;0.00;0.00;0.62;0.00;0.00;0.62;1.77;1.10;;;24.80;30.30;;;;;;2245994;61;20362;-61
2022/08/31 10:09:34;0.00;0.00;0.62;0.00;0.00;0.62;2.50;1.27;;;24.80;30.20;;;;;;2245839;61;20358;-61
2022/08/31 10:12:37;0.00;0.00;0.62;0.00;0.00;0.62;3.73;1.40;;;24.80;30.10;;;;;;2245123;61;20396;-61
2022/08/31 10:15:29;0.00;0.00;0.62;0.00;0.00;0.62;1.77;1.17;;;24.90;30.10;;;;;;2245134;61;20437;-60
2022/08/31 10:18:21;0.00;0.00;0.62;0.00;0.00;0.62;1.70;1.10;;;24.90;30.00;;;;;;2245180;61;20896;-59
2022/08/31 10:21:13;0.00;0.00;0.62;0.00;0.00;0.62;2.30;1.30;;;24.90;30.00;;;;;;2245642;61;20770;-61
2022/08/31 10:24:19;0.00;0.00;0.62;0.00;0.00;0.62;3.00;1.10;;;24.90;30.00;;;;;;2245481;61;20374;-60
2022/08/31 10:27:15;0.00;0.00;0.62;0.00;0.00;0.62;2.30;1.20;;;24.90;30.00;;;;;;2245555;61;20454;-60
2022/08/31 10:30:06;0.00;0.00;0.62;0.00;0.00;0.62;1.70;1.03;;;24.90;30.00;;;;;;2244780;61;20397;-60
2022/08/31 10:32:59;0.00;0.00;0.62;0.00;0.00;0.62;2.03;1.33;;;24.90;30.00;;;;;;2245425;61;20509;-60
2022/08/31 10:35:53;0.00;0.00;0.62;0.00;0.00;0.62;2.33;1.57;;;24.90;30.00;;;;;;2245555;61;20390;-61
2022/08/31 10:38:44;0.00;0.00;0.62;0.00;0.00;0.62;2.03;1.17;;;24.90;30.00;;;;;;2245691;61;20405;-60
2022/08/31 10:41:37;0.00;0.00;0.62;0.00;0.00;0.62;2.40;1.33;;;24.90;29.80;;;;;;2245579;61;20444;-59
2022/08/31 10:44:32;0.00;0.00;0.62;0.00;0.00;0.62;1.90;1.17;;;24.90;29.80;;;;;;2245125;61;20385;-60
2022/08/31 10:47:18;0.00;0.00;0.62;0.00;0.00;0.62;2.60;1.10;;;24.90;29.80;;;;;;2245999;61;20390;-60
2022/08/31 10:50:04;0.00;0.00;0.62;0.00;0.00;0.62;1.63;1.03;;;24.90;29.60;;;;;;2245817;61;20368;-60
2022/08/31 10:53:04;0.00;0.00;0.62;0.00;0.00;0.62;1.70;1.00;;;25.00;29.60;;;;;;2245068;61;20780;-60
2022/08/31 10:56:00;0.00;0.00;0.62;0.00;0.00;0.62;2.43;1.30;;;25.00;29.60;;;;;;2245416;61;20390;-60
2022/08/31 10:59:06;0.00;0.00;0.62;0.00;0.00;0.62;2.07;1.30;;;25.00;29.60;;;;;;2245474;61;20449;-60
2022/08/31 11:02:08;0.00;0.00;0.62;0.00;0.00;0.62;3.23;1.07;;;25.00;29.60;;;;;;2245938;61;20346;-61
2022/08/31 11:05:02;0.00;0.00;0.62;0.00;0.00;0.62;2.00;1.17;;;25.00;29.60;;;;;;2245187;61;20440;-60
2022/08/31 11:07:54;0.00;0.00;0.62;0.00;0.00;0.62;3.00;1.30;;;25.00;29.70;;;;;;2245656;61;20428;-60
2022/08/31 11:10:48;0.00;0.00;0.62;0.00;0.00;0.62;2.77;1.40;;;25.00;29.80;;;;;;2245490;61;20369;-61
2022/08/31 11:14:08;0.00;0.00;0.62;0.00;0.00;0.62;2.90;1.33;;;25.00;29.80;;;;;;2245475;61;20650;-59
2022/08/31 11:17:19;0.00;0.00;0.62;0.00;0.00;0.62;1.70;1.20;;;25.00;30.00;;;;;;2245875;61;20373;-60
2022/08/31 11:20:22;0.00;0.00;0.62;0.00;0.00;0.62;2.13;1.17;;;25.00;30.00;;;;;;2245695;61;20785;-58
2022/08/31 11:23:30;0.00;0.00;0.62;0.00;0.00;0.62;3.10;1.10;;;25.00;30.00;;;;;;2245501;61;20381;-61
2022/08/31 11:26:50;0.00;0.00;0.62;0.00;0.00;0.62;2.90;1.30;;;25.00;29.90;;;;;;2245228;61;20361;-59
2022/08/31 11:29:42;0.00;0.00;0.62;0.00;0.00;0.62;1.90;1.27;;;25.00;29.80;;;;;;2245356;61;20381;-61